sensor_id;sensor_type;location;lat;lon;timestamp;P1;durP1;ratioP1;P2;durP2;ratioP2
13067;SDS011;6600;51.362;6.686;2023-03-12T00:00:46;1.50;;;1.40;;
13067;SDS011;6600;51.362;6.686;2023-03-12T00:03:12;1.73;;;0.77;;
13067;SDS011;6600;51.362;6.686;2023-03-12T00:05:38;1.60;;;1.03;;
13067;SDS011;6600;51.362;6.686;2023-03-12T00:08:04;1.13;;;1.03;;
13067;SDS011;6600;51.362;6.686;2023-03-12T00:10:30;1.70;;;0.90;;
13067;SDS011;6600;51.362;6.686;2023-03-12T00:12:55;2.80;;;1.13;;
13067;SDS011;6600;51.362;6.686;2023-03-12T00:15:21;1.63;;;1.53;;
13067;SDS011;6600;51.362;6.686;2023-03-12T00:17:46;1.53;;;1.43;;
13067;SDS011;6600;51.362;6.686;2023-03-12T00:20:12;1.17;;;1.10;;
13067;SDS011;6600;51.362;6.686;2023-03-12T00:22:37;1.63;;;0.77;;
13067;SDS011;6600;51.362;6.686;2023-03-12T00:25:04;1.10;;;1.10;;
13067;SDS011;6600;51.362;6.686;2023-03-12T00:27:31;1.43;;;1.03;;
13067;SDS011;6600;51.362;6.686;2023-03-12T00:29:57;0.77;;;0.77;;
13067;SDS011;6600;51.362;6.686;2023-03-12T00:32:22;1.83;;;0.97;;
13067;SDS011;6600;51.362;6.686;2023-03-12T00:34:51;1.40;;;1.30;;
13067;SDS011;6600;51.362;6.686;2023-03-12T00:37:18;1.40;;;1.00;;
13067;SDS011;6600;51.362;6.686;2023-03-12T00:39:44;1.40;;;1.30;;
13067;SDS011;6600;51.362;6.686;2023-03-12T00:42:09;0.50;;;0.50;;
13067;SDS011;6600;51.362;6.686;2023-03-12T00:44:35;1.13;;;1.10;;
13067;SDS011;6600;51.362;6.686;2023-03-12T00:47:00;0.77;;;0.73;;
13067;SDS011;6600;51.362;6.686;2023-03-12T00:49:25;2.10;;;0.90;;
13067;SDS011;6600;51.362;6.686;2023-03-12T00:51:51;0.73;;;0.73;;
13067;SDS011;6600;51.362;6.686;2023-03-12T00:54:16;0.73;;;0.57;;
13067;SDS011;6600;51.362;6.686;2023-03-12T00:56:42;0.80;;;0.80;;
13067;SDS011;6600;51.362;6.686;2023-03-12T00:59:07;2.63;;;0.90;;
13067;SDS011;6600;51.362;6.686;2023-03-12T01:01:32;0.87;;;0.63;;
13067;SDS011;6600;51.362;6.686;2023-03-12T01:03:58;0.70;;;0.70;;
13067;SDS011;6600;51.362;6.686;2023-03-12T01:06:23;0.93;;;0.93;;
13067;SDS011;6600;51.362;6.686;2023-03-12T01:08:49;2.30;;;0.53;;
13067;SDS011;6600;51.362;6.686;2023-03-12T01:11:15;0.30;;;0.30;;
13067;SDS011;6600;51.362;6.686;2023-03-12T01:13:43;1.30;;;0.40;;
13067;SDS011;6600;51.362;6.686;2023-03-12T01:16:08;1.47;;;1.30;;
13067;SDS011;6600;51.362;6.686;2023-03-12T01:18:34;1.60;;;0.67;;
13067;SDS011;6600;51.362;6.686;2023-03-12T01:21:00;0.97;;;0.93;;
13067;SDS011;6600;51.362;6.686;2023-03-12T01:23:25;0.70;;;0.70;;
13067;SDS011;6600;51.362;6.686;2023-03-12T01:25:51;0.50;;;0.50;;
13067;SDS011;6600;51.362;6.686;2023-03-12T01:28:19;0.77;;;0.77;;
13067;SDS011;6600;51.362;6.686;2023-03-12T01:30:45;1.83;;;1.10;;
13067;SDS011;6600;51.362;6.686;2023-03-12T01:33:11;0.70;;;0.70;;
13067;SDS011;6600;51.362;6.686;2023-03-12T01:35:37;0.63;;;0.63;;
13067;SDS011;6600;51.362;6.686;2023-03-12T01:38:04;1.40;;;0.43;;
13067;SDS011;6600;51.362;6.686;2023-03-12T01:40:32;0.50;;;0.50;;
13067;SDS011;6600;51.362;6.686;2023-03-12T01:43:10;0.23;;;0.23;;
13067;SDS011;6600;51.362;6.686;2023-03-12T01:45:58;0.50;;;0.50;;
13067;SDS011;6600;51.362;6.686;2023-03-12T01:48:29;0.40;;;0.40;;
13067;SDS011;6600;51.362;6.686;2023-03-12T01:51:00;1.67;;;1.10;;
13067;SDS011;6600;51.362;6.686;2023-03-12T01:53:26;0.93;;;0.40;;
13067;SDS011;6600;51.362;6.686;2023-03-12T01:55:52;0.40;;;0.30;;
13067;SDS011;6600;51.362;6.686;2023-03-12T01:58:17;0.23;;;0.23;;
13067;SDS011;6600;51.362;6.686;2023-03-12T02:00:43;0.40;;;0.40;;
13067;SDS011;6600;51.362;6.686;2023-03-12T02:03:09;0.60;;;0.40;;
13067;SDS011;6600;51.362;6.686;2023-03-12T02:05:36;0.70;;;0.63;;
13067;SDS011;6600;51.362;6.686;2023-03-12T02:08:08;0.23;;;0.23;;
13067;SDS011;6600;51.362;6.686;2023-03-12T02:10:35;1.07;;;1.07;;
13067;SDS011;6600;51.362;6.686;2023-03-12T02:13:01;0.60;;;0.60;;
13067;SDS011;6600;51.362;6.686;2023-03-12T02:15:26;0.80;;;0.80;;
13067;SDS011;6600;51.362;6.686;2023-03-12T02:17:52;1.50;;;0.87;;
13067;SDS011;6600;51.362;6.686;2023-03-12T02:20:22;2.40;;;0.63;;
13067;SDS011;6600;51.362;6.686;2023-03-12T02:25:42;0.80;;;0.80;;
13067;SDS011;6600;51.362;6.686;2023-03-12T02:28:11;0.70;;;0.70;;
13067;SDS011;6600;51.362;6.686;2023-03-12T02:30:42;0.63;;;0.63;;
13067;SDS011;6600;51.362;6.686;2023-03-12T02:33:10;0.40;;;0.40;;
13067;SDS011;6600;51.362;6.686;2023-03-12T02:35:36;0.87;;;0.83;;
13067;SDS011;6600;51.362;6.686;2023-03-12T02:38:02;0.30;;;0.30;;
13067;SDS011;6600;51.362;6.686;2023-03-12T02:40:48;0.60;;;0.60;;
13067;SDS011;6600;51.362;6.686;2023-03-12T02:43:15;0.43;;;0.43;;
13067;SDS011;6600;51.362;6.686;2023-03-12T02:45:44;0.57;;;0.50;;
13067;SDS011;6600;51.362;6.686;2023-03-12T02:48:09;0.53;;;0.53;;
13067;SDS011;6600;51.362;6.686;2023-03-12T02:50:34;2.33;;;0.90;;
13067;SDS011;6600;51.362;6.686;2023-03-12T02:53:00;0.50;;;0.50;;
13067;SDS011;6600;51.362;6.686;2023-03-12T02:55:25;0.70;;;0.50;;
13067;SDS011;6600;51.362;6.686;2023-03-12T02:57:50;0.70;;;0.60;;
13067;SDS011;6600;51.362;6.686;2023-03-12T03:00:16;0.33;;;0.33;;
13067;SDS011;6600;51.362;6.686;2023-03-12T03:02:42;0.47;;;0.47;;
13067;SDS011;6600;51.362;6.686;2023-03-12T03:05:08;0.67;;;0.57;;
13067;SDS011;6600;51.362;6.686;2023-03-12T03:07:34;1.10;;;1.03;;
13067;SDS011;6600;51.362;6.686;2023-03-12T03:09:59;0.50;;;0.40;;
13067;SDS011;6600;51.362;6.686;2023-03-12T03:12:28;1.17;;;0.60;;
13067;SDS011;6600;51.362;6.686;2023-03-12T03:14:54;0.87;;;0.83;;
13067;SDS011;6600;51.362;6.686;2023-03-12T03:17:20;0.47;;;0.47;;
13067;SDS011;6600;51.362;6.686;2023-03-12T03:19:47;1.33;;;0.80;;
13067;SDS011;6600;51.362;6.686;2023-03-12T03:22:13;1.77;;;1.00;;
13067;SDS011;6600;51.362;6.686;2023-03-12T03:24:38;1.30;;;0.73;;
13067;SDS011;6600;51.362;6.686;2023-03-12T03:27:03;1.17;;;0.67;;
13067;SDS011;6600;51.362;6.686;2023-03-12T03:29:28;1.00;;;0.50;;
13067;SDS011;6600;51.362;6.686;2023-03-12T03:31:54;0.57;;;0.57;;
13067;SDS011;6600;51.362;6.686;2023-03-12T03:34:19;4.33;;;0.60;;
13067;SDS011;6600;51.362;6.686;2023-03-12T03:36:44;0.97;;;0.53;;
13067;SDS011;6600;51.362;6.686;2023-03-12T03:39:10;0.30;;;0.30;;
13067;SDS011;6600;51.362;6.686;2023-03-12T03:41:35;0.43;;;0.43;;
13067;SDS011;6600;51.362;6.686;2023-03-12T03:44:01;0.37;;;0.37;;
13067;SDS011;6600;51.362;6.686;2023-03-12T03:46:26;0.50;;;0.50;;
13067;SDS011;6600;51.362;6.686;2023-03-12T03:48:51;0.77;;;0.77;;
13067;SDS011;6600;51.362;6.686;2023-03-12T03:51:17;1.17;;;0.60;;
13067;SDS011;6600;51.362;6.686;2023-03-12T03:53:42;0.50;;;0.50;;
13067;SDS011;6600;51.362;6.686;2023-03-12T03:56:08;0.57;;;0.57;;
13067;SDS011;6600;51.362;6.686;2023-03-12T03:58:36;4.60;;;1.40;;
13067;SDS011;6600;51.362;6.686;2023-03-12T04:01:02;0.70;;;0.53;;
13067;SDS011;6600;51.362;6.686;2023-03-12T04:03:28;0.50;;;0.50;;
13067;SDS011;6600;51.362;6.686;2023-03-12T04:05:54;0.47;;;0.30;;
13067;SDS011;6600;51.362;6.686;2023-03-12T04:08:21;1.70;;;1.10;;
13067;SDS011;6600;51.362;6.686;2023-03-12T04:10:46;2.80;;;0.70;;
13067;SDS011;6600;51.362;6.686;2023-03-12T04:13:11;1.70;;;0.30;;
13067;SDS011;6600;51.362;6.686;2023-03-12T04:15:37;0.70;;;0.70;;
13067;SDS011;6600;51.362;6.686;2023-03-12T04:18:02;0.33;;;0.33;;
13067;SDS011;6600;51.362;6.686;2023-03-12T04:20:28;1.13;;;0.90;;
13067;SDS011;6600;51.362;6.686;2023-03-12T04:22:53;1.80;;;0.80;;
13067;SDS011;6600;51.362;6.686;2023-03-12T04:25:19;0.70;;;0.70;;
13067;SDS011;6600;51.362;6.686;2023-03-12T04:27:44;0.80;;;0.80;;
13067;SDS011;6600;51.362;6.686;2023-03-12T04:30:09;0.60;;;0.30;;
13067;SDS011;6600;51.362;6.686;2023-03-12T04:32:35;0.30;;;0.30;;
13067;SDS011;6600;51.362;6.686;2023-03-12T04:35:01;0.80;;;0.80;;
13067;SDS011;6600;51.362;6.686;2023-03-12T04:37:27;0.47;;;0.47;;
13067;SDS011;6600;51.362;6.686;2023-03-12T04:39:55;1.87;;;0.63;;
13067;SDS011;6600;51.362;6.686;2023-03-12T04:42:21;0.77;;;0.73;;
13067;SDS011;6600;51.362;6.686;2023-03-12T04:44:46;0.50;;;0.50;;
13067;SDS011;6600;51.362;6.686;2023-03-12T04:47:11;0.30;;;0.30;;
13067;SDS011;6600;51.362;6.686;2023-03-12T04:49:37;0.93;;;0.73;;
13067;SDS011;6600;51.362;6.686;2023-03-12T04:52:03;2.10;;;0.53;;
13067;SDS011;6600;51.362;6.686;2023-03-12T04:54:28;0.60;;;0.57;;
13067;SDS011;6600;51.362;6.686;2023-03-12T04:56:55;1.03;;;0.70;;
13067;SDS011;6600;51.362;6.686;2023-03-12T04:59:21;0.70;;;0.70;;
13067;SDS011;6600;51.362;6.686;2023-03-12T05:01:46;0.20;;;0.20;;
13067;SDS011;6600;51.362;6.686;2023-03-12T05:04:11;0.93;;;0.40;;
13067;SDS011;6600;51.362;6.686;2023-03-12T05:06:37;0.77;;;0.63;;
13067;SDS011;6600;51.362;6.686;2023-03-12T05:09:02;0.33;;;0.33;;
13067;SDS011;6600;51.362;6.686;2023-03-12T05:11:27;1.47;;;0.83;;
13067;SDS011;6600;51.362;6.686;2023-03-12T05:13:53;0.43;;;0.43;;
13067;SDS011;6600;51.362;6.686;2023-03-12T05:16:18;0.83;;;0.83;;
13067;SDS011;6600;51.362;6.686;2023-03-12T05:18:44;0.50;;;0.50;;
13067;SDS011;6600;51.362;6.686;2023-03-12T05:21:14;0.60;;;0.60;;
13067;SDS011;6600;51.362;6.686;2023-03-12T05:23:42;0.60;;;0.27;;
13067;SDS011;6600;51.362;6.686;2023-03-12T05:26:17;0.53;;;0.43;;
13067;SDS011;6600;51.362;6.686;2023-03-12T05:28:44;0.23;;;0.23;;
13067;SDS011;6600;51.362;6.686;2023-03-12T05:31:11;2.73;;;0.93;;
13067;SDS011;6600;51.362;6.686;2023-03-12T05:33:37;0.50;;;0.50;;
13067;SDS011;6600;51.362;6.686;2023-03-12T05:36:03;2.30;;;0.60;;
13067;SDS011;6600;51.362;6.686;2023-03-12T05:38:28;0.30;;;0.30;;
13067;SDS011;6600;51.362;6.686;2023-03-12T05:40:54;0.60;;;0.60;;
13067;SDS011;6600;51.362;6.686;2023-03-12T05:43:22;0.37;;;0.37;;
13067;SDS011;6600;51.362;6.686;2023-03-12T05:45:47;0.40;;;0.40;;
13067;SDS011;6600;51.362;6.686;2023-03-12T05:48:13;0.50;;;0.50;;
13067;SDS011;6600;51.362;6.686;2023-03-12T05:50:39;0.30;;;0.30;;
13067;SDS011;6600;51.362;6.686;2023-03-12T05:53:04;0.63;;;0.63;;
13067;SDS011;6600;51.362;6.686;2023-03-12T05:55:30;0.47;;;0.20;;
13067;SDS011;6600;51.362;6.686;2023-03-12T05:57:59;0.27;;;0.27;;
13067;SDS011;6600;51.362;6.686;2023-03-12T06:00:24;0.50;;;0.43;;
13067;SDS011;6600;51.362;6.686;2023-03-12T06:02:50;0.17;;;0.10;;
13067;SDS011;6600;51.362;6.686;2023-03-12T06:05:15;0.50;;;0.50;;
13067;SDS011;6600;51.362;6.686;2023-03-12T06:07:40;1.37;;;1.30;;
13067;SDS011;6600;51.362;6.686;2023-03-12T06:10:06;0.43;;;0.43;;
13067;SDS011;6600;51.362;6.686;2023-03-12T06:12:32;0.97;;;0.70;;
13067;SDS011;6600;51.362;6.686;2023-03-12T06:14:57;1.10;;;0.50;;
13067;SDS011;6600;51.362;6.686;2023-03-12T06:17:22;0.80;;;0.80;;
13067;SDS011;6600;51.362;6.686;2023-03-12T06:19:51;0.33;;;0.33;;
13067;SDS011;6600;51.362;6.686;2023-03-12T06:22:17;0.57;;;0.57;;
13067;SDS011;6600;51.362;6.686;2023-03-12T06:24:43;0.63;;;0.63;;
13067;SDS011;6600;51.362;6.686;2023-03-12T06:27:11;0.50;;;0.50;;
13067;SDS011;6600;51.362;6.686;2023-03-12T06:29:37;0.77;;;0.50;;
13067;SDS011;6600;51.362;6.686;2023-03-12T06:32:02;1.83;;;1.73;;
13067;SDS011;6600;51.362;6.686;2023-03-12T06:34:27;0.27;;;0.27;;
13067;SDS011;6600;51.362;6.686;2023-03-12T06:36:53;2.57;;;0.40;;
13067;SDS011;6600;51.362;6.686;2023-03-12T06:39:18;0.80;;;0.57;;
13067;SDS011;6600;51.362;6.686;2023-03-12T06:41:43;0.50;;;0.50;;
13067;SDS011;6600;51.362;6.686;2023-03-12T06:44:09;0.77;;;0.77;;
13067;SDS011;6600;51.362;6.686;2023-03-12T06:46:34;1.10;;;0.60;;
13067;SDS011;6600;51.362;6.686;2023-03-12T06:49:00;0.67;;;0.67;;
13067;SDS011;6600;51.362;6.686;2023-03-12T06:51:26;2.83;;;0.70;;
13067;SDS011;6600;51.362;6.686;2023-03-12T06:53:52;0.17;;;0.17;;
13067;SDS011;6600;51.362;6.686;2023-03-12T06:56:17;1.03;;;0.97;;
13067;SDS011;6600;51.362;6.686;2023-03-12T06:58:42;1.13;;;0.50;;
13067;SDS011;6600;51.362;6.686;2023-03-12T07:01:08;0.30;;;0.30;;
13067;SDS011;6600;51.362;6.686;2023-03-12T07:03:33;0.43;;;0.43;;
13067;SDS011;6600;51.362;6.686;2023-03-12T07:05:59;0.30;;;0.30;;
13067;SDS011;6600;51.362;6.686;2023-03-12T07:08:25;0.40;;;0.40;;
13067;SDS011;6600;51.362;6.686;2023-03-12T07:10:53;0.23;;;0.23;;
13067;SDS011;6600;51.362;6.686;2023-03-12T07:13:19;0.40;;;0.40;;
13067;SDS011;6600;51.362;6.686;2023-03-12T07:15:44;0.23;;;0.23;;
13067;SDS011;6600;51.362;6.686;2023-03-12T07:18:10;0.20;;;0.20;;
13067;SDS011;6600;51.362;6.686;2023-03-12T07:20:37;0.27;;;0.27;;
13067;SDS011;6600;51.362;6.686;2023-03-12T07:23:04;0.67;;;0.67;;
13067;SDS011;6600;51.362;6.686;2023-03-12T07:25:29;0.40;;;0.40;;
13067;SDS011;6600;51.362;6.686;2023-03-12T07:27:55;0.60;;;0.60;;
13067;SDS011;6600;51.362;6.686;2023-03-12T07:30:20;1.33;;;1.10;;
13067;SDS011;6600;51.362;6.686;2023-03-12T07:32:46;0.37;;;0.30;;
13067;SDS011;6600;51.362;6.686;2023-03-12T07:35:11;0.87;;;0.60;;
13067;SDS011;6600;51.362;6.686;2023-03-12T07:37:36;0.50;;;0.50;;
13067;SDS011;6600;51.362;6.686;2023-03-12T07:40:02;0.53;;;0.53;;
13067;SDS011;6600;51.362;6.686;2023-03-12T07:42:31;0.60;;;0.43;;
13067;SDS011;6600;51.362;6.686;2023-03-12T07:44:57;0.50;;;0.37;;
13067;SDS011;6600;51.362;6.686;2023-03-12T07:47:22;0.40;;;0.40;;
13067;SDS011;6600;51.362;6.686;2023-03-12T07:49:48;0.40;;;0.40;;
13067;SDS011;6600;51.362;6.686;2023-03-12T07:52:13;0.60;;;0.60;;
13067;SDS011;6600;51.362;6.686;2023-03-12T07:54:39;0.63;;;0.63;;
13067;SDS011;6600;51.362;6.686;2023-03-12T07:57:04;0.30;;;0.30;;
13067;SDS011;6600;51.362;6.686;2023-03-12T07:59:30;0.77;;;0.77;;
13067;SDS011;6600;51.362;6.686;2023-03-12T08:01:56;0.20;;;0.20;;
13067;SDS011;6600;51.362;6.686;2023-03-12T08:04:22;0.30;;;0.30;;
13067;SDS011;6600;51.362;6.686;2023-03-12T08:06:47;0.93;;;0.87;;
13067;SDS011;6600;51.362;6.686;2023-03-12T08:09:12;0.47;;;0.43;;
13067;SDS011;6600;51.362;6.686;2023-03-12T08:11:38;0.60;;;0.60;;
13067;SDS011;6600;51.362;6.686;2023-03-12T08:14:03;0.60;;;0.60;;
13067;SDS011;6600;51.362;6.686;2023-03-12T08:16:29;2.53;;;0.87;;
13067;SDS011;6600;51.362;6.686;2023-03-12T08:18:54;0.80;;;0.50;;
13067;SDS011;6600;51.362;6.686;2023-03-12T08:21:20;0.37;;;0.33;;
13067;SDS011;6600;51.362;6.686;2023-03-12T08:23:45;0.47;;;0.47;;
13067;SDS011;6600;51.362;6.686;2023-03-12T08:26:11;0.63;;;0.63;;
13067;SDS011;6600;51.362;6.686;2023-03-12T08:28:36;1.37;;;0.97;;
13067;SDS011;6600;51.362;6.686;2023-03-12T08:31:02;1.50;;;0.57;;
13067;SDS011;6600;51.362;6.686;2023-03-12T08:33:27;0.50;;;0.50;;
13067;SDS011;6600;51.362;6.686;2023-03-12T08:35:53;1.27;;;0.83;;
13067;SDS011;6600;51.362;6.686;2023-03-12T08:38:19;1.33;;;0.70;;
13067;SDS011;6600;51.362;6.686;2023-03-12T08:40:44;0.70;;;0.60;;
13067;SDS011;6600;51.362;6.686;2023-03-12T08:43:09;0.93;;;0.53;;
13067;SDS011;6600;51.362;6.686;2023-03-12T08:45:35;1.67;;;0.70;;
13067;SDS011;6600;51.362;6.686;2023-03-12T08:48:01;1.30;;;0.50;;
13067;SDS011;6600;51.362;6.686;2023-03-12T08:50:27;0.47;;;0.47;;
13067;SDS011;6600;51.362;6.686;2023-03-12T08:52:55;0.67;;;0.67;;
13067;SDS011;6600;51.362;6.686;2023-03-12T08:55:20;2.13;;;1.20;;
13067;SDS011;6600;51.362;6.686;2023-03-12T08:57:46;0.93;;;0.93;;
13067;SDS011;6600;51.362;6.686;2023-03-12T09:00:11;0.67;;;0.60;;
13067;SDS011;6600;51.362;6.686;2023-03-12T09:02:40;0.67;;;0.67;;
13067;SDS011;6600;51.362;6.686;2023-03-12T09:05:07;0.73;;;0.70;;
13067;SDS011;6600;51.362;6.686;2023-03-12T09:07:33;3.23;;;1.73;;
13067;SDS011;6600;51.362;6.686;2023-03-12T09:09:58;0.77;;;0.77;;
13067;SDS011;6600;51.362;6.686;2023-03-12T09:12:23;0.70;;;0.70;;
13067;SDS011;6600;51.362;6.686;2023-03-12T09:14:49;1.23;;;1.10;;
13067;SDS011;6600;51.362;6.686;2023-03-12T09:17:16;5.63;;;1.13;;
13067;SDS011;6600;51.362;6.686;2023-03-12T09:19:41;0.80;;;0.80;;
13067;SDS011;6600;51.362;6.686;2023-03-12T09:22:06;1.17;;;1.10;;
13067;SDS011;6600;51.362;6.686;2023-03-12T09:24:32;0.60;;;0.50;;
13067;SDS011;6600;51.362;6.686;2023-03-12T09:26:57;0.90;;;0.90;;
13067;SDS011;6600;51.362;6.686;2023-03-12T09:29:23;3.50;;;0.77;;
13067;SDS011;6600;51.362;6.686;2023-03-12T09:31:49;0.70;;;0.67;;
13067;SDS011;6600;51.362;6.686;2023-03-12T09:34:15;0.57;;;0.57;;
13067;SDS011;6600;51.362;6.686;2023-03-12T09:36:40;1.27;;;0.87;;
13067;SDS011;6600;51.362;6.686;2023-03-12T09:39:05;1.13;;;0.90;;
13067;SDS011;6600;51.362;6.686;2023-03-12T09:41:33;1.37;;;1.23;;
13067;SDS011;6600;51.362;6.686;2023-03-12T09:44:20;0.73;;;0.73;;
13067;SDS011;6600;51.362;6.686;2023-03-12T09:47:06;0.90;;;0.90;;
13067;SDS011;6600;51.362;6.686;2023-03-12T09:49:42;1.63;;;1.50;;
13067;SDS011;6600;51.362;6.686;2023-03-12T09:52:16;0.97;;;0.67;;
13067;SDS011;6600;51.362;6.686;2023-03-12T09:57:31;1.30;;;1.07;;
13067;SDS011;6600;51.362;6.686;2023-03-12T09:59:56;1.20;;;0.80;;
13067;SDS011;6600;51.362;6.686;2023-03-12T10:05:51;1.53;;;0.87;;
13067;SDS011;6600;51.362;6.686;2023-03-12T10:08:30;1.90;;;1.17;;
13067;SDS011;6600;51.362;6.686;2023-03-12T10:14:13;2.33;;;1.00;;
13067;SDS011;6600;51.362;6.686;2023-03-12T10:22:30;1.20;;;1.10;;
13067;SDS011;6600;51.362;6.686;2023-03-12T10:25:14;2.70;;;1.60;;
13067;SDS011;6600;51.362;6.686;2023-03-12T10:28:10;4.47;;;1.80;;
13067;SDS011;6600;51.362;6.686;2023-03-12T10:30:40;3.10;;;1.63;;
13067;SDS011;6600;51.362;6.686;2023-03-12T10:33:11;1.10;;;1.07;;
13067;SDS011;6600;51.362;6.686;2023-03-12T10:35:40;2.17;;;1.27;;
13067;SDS011;6600;51.362;6.686;2023-03-12T10:38:09;1.07;;;1.00;;
13067;SDS011;6600;51.362;6.686;2023-03-12T10:40:39;2.17;;;1.43;;
13067;SDS011;6600;51.362;6.686;2023-03-12T10:43:05;1.90;;;1.67;;
13067;SDS011;6600;51.362;6.686;2023-03-12T10:48:22;1.67;;;1.57;;
13067;SDS011;6600;51.362;6.686;2023-03-12T10:51:06;1.33;;;1.23;;
13067;SDS011;6600;51.362;6.686;2023-03-12T10:53:39;2.27;;;1.07;;
13067;SDS011;6600;51.362;6.686;2023-03-12T10:56:13;2.37;;;1.73;;
13067;SDS011;6600;51.362;6.686;2023-03-12T10:58:45;3.53;;;1.50;;
13067;SDS011;6600;51.362;6.686;2023-03-12T11:01:22;3.83;;;1.40;;
13067;SDS011;6600;51.362;6.686;2023-03-12T11:03:50;2.67;;;1.87;;
13067;SDS011;6600;51.362;6.686;2023-03-12T11:06:24;2.63;;;1.63;;
13067;SDS011;6600;51.362;6.686;2023-03-12T11:11:49;2.03;;;1.63;;
13067;SDS011;6600;51.362;6.686;2023-03-12T11:14:15;1.90;;;1.70;;
13067;SDS011;6600;51.362;6.686;2023-03-12T11:16:43;3.07;;;2.47;;
13067;SDS011;6600;51.362;6.686;2023-03-12T11:19:11;2.00;;;1.63;;
13067;SDS011;6600;51.362;6.686;2023-03-12T11:21:38;2.40;;;1.63;;
13067;SDS011;6600;51.362;6.686;2023-03-12T11:24:13;2.00;;;1.80;;
13067;SDS011;6600;51.362;6.686;2023-03-12T11:26:47;2.90;;;1.30;;
13067;SDS011;6600;51.362;6.686;2023-03-12T11:32:19;2.57;;;2.07;;
13067;SDS011;6600;51.362;6.686;2023-03-12T11:34:50;2.67;;;2.17;;
13067;SDS011;6600;51.362;6.686;2023-03-12T11:47:52;2.73;;;2.37;;
13067;SDS011;6600;51.362;6.686;2023-03-12T11:53:26;3.87;;;1.90;;
13067;SDS011;6600;51.362;6.686;2023-03-12T12:02:15;3.50;;;2.37;;
13067;SDS011;6600;51.362;6.686;2023-03-12T12:13:07;2.30;;;1.93;;
13067;SDS011;6600;51.362;6.686;2023-03-12T12:16:01;2.60;;;2.03;;
13067;SDS011;6600;51.362;6.686;2023-03-12T12:19:14;4.07;;;2.57;;
13067;SDS011;6600;51.362;6.686;2023-03-12T12:27:28;3.13;;;2.30;;
13067;SDS011;6600;51.362;6.686;2023-03-12T12:30:10;3.23;;;2.17;;
13067;SDS011;6600;51.362;6.686;2023-03-12T12:35:41;5.03;;;2.10;;
13067;SDS011;6600;51.362;6.686;2023-03-12T12:40:54;7.17;;;3.30;;
13067;SDS011;6600;51.362;6.686;2023-03-12T12:44:09;8.33;;;2.47;;
13067;SDS011;6600;51.362;6.686;2023-03-12T12:46:23;6.97;;;2.90;;
13067;SDS011;6600;51.362;6.686;2023-03-12T12:51:20;5.67;;;2.90;;
13067;SDS011;6600;51.362;6.686;2023-03-12T12:54:01;5.77;;;3.10;;
13067;SDS011;6600;51.362;6.686;2023-03-12T13:01:30;10.73;;;3.70;;
13067;SDS011;6600;51.362;6.686;2023-03-12T13:04:11;3.03;;;2.10;;
13067;SDS011;6600;51.362;6.686;2023-03-12T13:06:55;7.13;;;2.33;;
13067;SDS011;6600;51.362;6.686;2023-03-12T13:09:21;7.43;;;2.90;;
13067;SDS011;6600;51.362;6.686;2023-03-12T13:12:04;5.90;;;3.17;;
13067;SDS011;6600;51.362;6.686;2023-03-12T13:14:37;11.07;;;3.57;;
13067;SDS011;6600;51.362;6.686;2023-03-12T13:17:05;6.77;;;3.30;;
13067;SDS011;6600;51.362;6.686;2023-03-12T13:19:46;5.10;;;2.33;;
13067;SDS011;6600;51.362;6.686;2023-03-12T13:27:30;5.50;;;2.17;;
13067;SDS011;6600;51.362;6.686;2023-03-12T13:45:26;3.97;;;1.70;;
13067;SDS011;6600;51.362;6.686;2023-03-12T13:47:56;8.13;;;2.03;;
13067;SDS011;6600;51.362;6.686;2023-03-12T13:50:24;4.63;;;1.77;;
13067;SDS011;6600;51.362;6.686;2023-03-12T13:53:03;4.40;;;1.93;;
13067;SDS011;6600;51.362;6.686;2023-03-12T13:55:35;2.07;;;1.77;;
13067;SDS011;6600;51.362;6.686;2023-03-12T13:58:09;5.40;;;1.73;;
13067;SDS011;6600;51.362;6.686;2023-03-12T14:00:49;5.60;;;1.53;;
13067;SDS011;6600;51.362;6.686;2023-03-12T14:03:23;7.33;;;2.23;;
13067;SDS011;6600;51.362;6.686;2023-03-12T14:06:04;1.70;;;1.17;;
13067;SDS011;6600;51.362;6.686;2023-03-12T14:17:05;4.47;;;1.67;;
13067;SDS011;6600;51.362;6.686;2023-03-12T14:19:39;6.90;;;1.83;;
13067;SDS011;6600;51.362;6.686;2023-03-12T14:22:10;6.00;;;1.53;;
13067;SDS011;6600;51.362;6.686;2023-03-12T14:24:38;2.03;;;1.20;;
13067;SDS011;6600;51.362;6.686;2023-03-12T14:27:16;3.97;;;1.50;;
13067;SDS011;6600;51.362;6.686;2023-03-12T14:29:44;2.63;;;1.30;;
13067;SDS011;6600;51.362;6.686;2023-03-12T14:32:18;9.33;;;1.80;;
13067;SDS011;6600;51.362;6.686;2023-03-12T14:34:50;4.50;;;1.70;;
13067;SDS011;6600;51.362;6.686;2023-03-12T14:40:00;5.67;;;1.30;;
13067;SDS011;6600;51.362;6.686;2023-03-12T14:42:32;3.70;;;1.40;;
13067;SDS011;6600;51.362;6.686;2023-03-12T14:45:00;4.13;;;1.63;;
13067;SDS011;6600;51.362;6.686;2023-03-12T14:47:41;2.70;;;1.73;;
13067;SDS011;6600;51.362;6.686;2023-03-12T14:50:15;4.00;;;2.20;;
13067;SDS011;6600;51.362;6.686;2023-03-12T14:52:46;3.97;;;1.10;;
13067;SDS011;6600;51.362;6.686;2023-03-12T14:55:13;5.80;;;1.10;;
13067;SDS011;6600;51.362;6.686;2023-03-12T14:57:42;4.07;;;1.77;;
13067;SDS011;6600;51.362;6.686;2023-03-12T15:00:13;7.50;;;2.27;;
13067;SDS011;6600;51.362;6.686;2023-03-12T15:02:46;1.00;;;0.77;;
13067;SDS011;6600;51.362;6.686;2023-03-12T15:05:15;6.03;;;2.03;;
13067;SDS011;6600;51.362;6.686;2023-03-12T15:07:42;4.20;;;1.10;;
13067;SDS011;6600;51.362;6.686;2023-03-12T15:10:17;4.07;;;1.30;;
13067;SDS011;6600;51.362;6.686;2023-03-12T15:12:47;3.47;;;0.90;;
13067;SDS011;6600;51.362;6.686;2023-03-12T15:18:04;1.90;;;0.67;;
13067;SDS011;6600;51.362;6.686;2023-03-12T15:20:31;6.03;;;1.93;;
13067;SDS011;6600;51.362;6.686;2023-03-12T15:22:57;3.47;;;1.37;;
13067;SDS011;6600;51.362;6.686;2023-03-12T15:25:25;1.60;;;1.27;;
13067;SDS011;6600;51.362;6.686;2023-03-12T15:28:26;3.67;;;1.50;;
13067;SDS011;6600;51.362;6.686;2023-03-12T15:30:46;4.03;;;1.63;;
13067;SDS011;6600;51.362;6.686;2023-03-12T15:34:09;8.03;;;2.20;;
13067;SDS011;6600;51.362;6.686;2023-03-12T15:36:34;2.47;;;1.20;;
13067;SDS011;6600;51.362;6.686;2023-03-12T15:39:11;7.73;;;1.80;;
13067;SDS011;6600;51.362;6.686;2023-03-12T15:41:54;7.10;;;2.00;;
13067;SDS011;6600;51.362;6.686;2023-03-12T15:44:24;2.37;;;1.40;;
13067;SDS011;6600;51.362;6.686;2023-03-12T15:46:53;6.93;;;1.80;;
13067;SDS011;6600;51.362;6.686;2023-03-12T15:49:27;5.90;;;1.80;;
13067;SDS011;6600;51.362;6.686;2023-03-12T15:52:02;8.30;;;1.80;;
13067;SDS011;6600;51.362;6.686;2023-03-12T15:54:34;3.67;;;1.30;;
13067;SDS011;6600;51.362;6.686;2023-03-12T15:57:14;6.53;;;1.67;;
13067;SDS011;6600;51.362;6.686;2023-03-12T15:59:43;4.83;;;1.00;;
13067;SDS011;6600;51.362;6.686;2023-03-12T16:02:32;2.47;;;1.37;;
13067;SDS011;6600;51.362;6.686;2023-03-12T16:05:00;5.70;;;1.43;;
13067;SDS011;6600;51.362;6.686;2023-03-12T16:07:25;6.53;;;1.10;;
13067;SDS011;6600;51.362;6.686;2023-03-12T16:09:51;5.20;;;1.90;;
13067;SDS011;6600;51.362;6.686;2023-03-12T16:12:17;6.30;;;1.67;;
13067;SDS011;6600;51.362;6.686;2023-03-12T16:14:42;2.73;;;2.27;;
13067;SDS011;6600;51.362;6.686;2023-03-12T16:17:10;1.43;;;1.33;;
13067;SDS011;6600;51.362;6.686;2023-03-12T16:19:38;5.90;;;1.10;;
13067;SDS011;6600;51.362;6.686;2023-03-12T16:22:04;5.90;;;1.00;;
13067;SDS011;6600;51.362;6.686;2023-03-12T16:24:29;3.10;;;0.93;;
13067;SDS011;6600;51.362;6.686;2023-03-12T16:26:57;3.63;;;1.37;;
13067;SDS011;6600;51.362;6.686;2023-03-12T16:29:26;2.53;;;1.00;;
13067;SDS011;6600;51.362;6.686;2023-03-12T16:31:57;5.73;;;1.10;;
13067;SDS011;6600;51.362;6.686;2023-03-12T16:34:23;1.70;;;1.20;;
13067;SDS011;6600;51.362;6.686;2023-03-12T16:36:48;5.23;;;2.03;;
13067;SDS011;6600;51.362;6.686;2023-03-12T16:39:14;6.77;;;1.40;;
13067;SDS011;6600;51.362;6.686;2023-03-12T16:41:40;4.53;;;1.17;;
13067;SDS011;6600;51.362;6.686;2023-03-12T16:44:06;5.10;;;1.30;;
13067;SDS011;6600;51.362;6.686;2023-03-12T16:46:32;3.53;;;1.50;;
13067;SDS011;6600;51.362;6.686;2023-03-12T16:48:59;2.67;;;1.47;;
13067;SDS011;6600;51.362;6.686;2023-03-12T16:51:24;2.30;;;1.13;;
13067;SDS011;6600;51.362;6.686;2023-03-12T16:53:52;1.50;;;1.20;;
13067;SDS011;6600;51.362;6.686;2023-03-12T16:56:19;5.77;;;1.80;;